createdAt,value
2019-04-22T00:01:27.067Z,12.50
2019-04-22T00:04:00.499Z,12.70
2019-04-22T00:06:44.042Z,12.90
2019-04-22T00:09:20.939Z,13.00
2019-04-22T00:11:54.306Z,13.00
2019-04-22T00:14:13.060Z,13.00
2019-04-22T00:19:20.694Z,13.00
2019-04-22T00:21:50.213Z,12.90
2019-04-22T00:24:18.692Z,12.90
2019-04-22T00:26:50.033Z,12.70
2019-04-22T00:29:39.434Z,12.60
2019-04-22T00:32:05.024Z,12.50
2019-04-22T00:34:34.177Z,12.40
2019-04-22T00:37:11.015Z,12.40
2019-04-22T00:42:08.346Z,12.40
2019-04-22T00:44:40.340Z,12.30
2019-04-22T00:47:07.489Z,12.00
2019-04-22T00:50:06.339Z,11.80
2019-04-22T00:52:09.577Z,11.60
2019-04-22T00:54:41.535Z,11.40
2019-04-22T00:57:08.727Z,11.30
2019-04-22T00:59:40.451Z,11.10
2019-04-22T01:02:13.118Z,11.00
2019-04-22T01:04:39.261Z,11.10
2019-04-22T01:07:13.084Z,11.10
2019-04-22T01:09:38.939Z,11.00
2019-04-22T01:12:13.509Z,10.90
2019-04-22T01:14:42.579Z,10.80
2019-04-22T01:17:06.008Z,10.80
2019-04-22T01:19:47.263Z,10.70
2019-04-22T01:22:17.342Z,10.70
2019-04-22T01:24:40.767Z,10.60
2019-04-22T01:27:11.502Z,10.60
2019-04-22T01:29:42.420Z,10.60
2019-04-22T01:31:58.219Z,10.60
2019-04-22T01:34:49.330Z,10.50
2019-04-22T01:37:20.326Z,10.50
2019-04-22T01:39:57.287Z,10.50
2019-04-22T01:42:29.935Z,10.50
2019-04-22T01:44:50.867Z,10.60
2019-04-22T01:47:31.343Z,10.60
2019-04-22T01:50:04.383Z,10.50
2019-04-22T01:52:20.323Z,10.40
2019-04-22T01:54:58.561Z,10.30
2019-04-22T01:57:24.213Z,10.20
2019-04-22T01:59:52.034Z,10.10
2019-04-22T02:02:30.387Z,10.10
2019-04-22T02:05:02.788Z,10.00
2019-04-22T02:07:29.439Z,10.00
2019-04-22T02:09:55.118Z,10.00
2019-04-22T02:12:25.901Z,10.00
2019-04-22T02:14:57.809Z,10.00
2019-04-22T02:17:31.556Z,9.90
2019-04-22T02:19:57.471Z,9.90
2019-04-22T02:22:44.255Z,9.90
2019-04-22T02:24:59.121Z,9.80
2019-04-22T02:27:33.853Z,9.80
2019-04-22T02:29:58.230Z,9.80
2019-04-22T02:32:48.522Z,9.90
2019-04-22T02:35:11.587Z,10.00
2019-04-22T02:37:27.730Z,10.10
2019-04-22T02:40:14.006Z,10.10
2019-04-22T02:42:23.534Z,10.20
2019-04-22T02:45:19.097Z,10.30
2019-04-22T02:47:31.592Z,10.30
2019-04-22T02:50:07.389Z,10.30
2019-04-22T02:57:39.985Z,10.00
2019-04-22T03:02:53.032Z,9.90
2019-04-22T03:05:08.940Z,9.90
2019-04-22T03:10:09.114Z,9.70
2019-04-22T03:17:38.294Z,9.70
2019-04-22T03:20:17.851Z,9.70
2019-04-22T03:22:38.536Z,9.70
2019-04-22T03:27:35.402Z,9.80
2019-04-22T03:42:52.009Z,9.40
2019-04-22T03:47:43.581Z,9.20
2019-04-22T03:50:28.018Z,9.10
2019-04-22T03:52:38.804Z,9.10
2019-04-22T04:00:17.422Z,9.10
2019-04-22T04:05:29.545Z,9.20
2019-04-22T04:10:30.207Z,9.30
2019-04-22T04:12:53.720Z,9.30
2019-04-22T04:17:51.855Z,9.30
2019-04-22T04:20:24.339Z,9.20
2019-04-22T04:25:26.705Z,9.20
2019-04-22T04:40:20.898Z,9.40
2019-04-22T04:50:18.258Z,10.10
2019-04-22T04:55:22.083Z,10.90
2019-04-22T04:57:57.631Z,11.30
2019-04-22T05:05:20.791Z,11.50
2019-04-22T05:15:18.584Z,11.10
2019-04-22T05:17:55.001Z,11.20
2019-04-22T05:20:24.152Z,11.40
2019-04-22T05:27:45.344Z,11.90
2019-04-22T05:30:23.415Z,12.10
2019-04-22T05:32:43.278Z,12.40
2019-04-22T05:35:14.589Z,12.60
2019-04-22T05:37:50.365Z,12.90
2019-04-22T05:40:20.249Z,13.00
2019-04-22T05:42:44.191Z,13.00
2019-04-22T05:45:23.092Z,13.00
2019-04-22T05:47:46.157Z,13.20
2019-04-22T05:50:13.058Z,13.50
2019-04-22T05:52:55.251Z,13.70
2019-04-22T05:55:52.368Z,13.60
2019-04-22T05:57:57.711Z,13.80
2019-04-22T06:01:01.626Z,14.00
2019-04-22T06:02:57.236Z,14.50
2019-04-22T06:05:32.192Z,14.90
2019-04-22T06:08:02.529Z,15.00
2019-04-22T06:10:39.919Z,14.70
2019-04-22T06:13:00.795Z,14.20
2019-04-22T06:15:33.906Z,14.00
2019-04-22T06:20:45.456Z,13.70
2019-04-22T06:23:12.659Z,13.50
2019-04-22T06:28:26.692Z,13.20
2019-04-22T06:30:43.202Z,13.20
2019-04-22T06:33:19.198Z,13.20
2019-04-22T06:35:59.008Z,13.30
2019-04-22T06:41:04.067Z,13.50
2019-04-22T06:45:40.182Z,13.60
2019-04-22T06:48:19.649Z,13.60
2019-04-22T06:53:16.853Z,13.70
2019-04-22T06:55:48.227Z,13.80
2019-04-22T06:58:15.266Z,13.90
2019-04-22T07:05:47.566Z,14.30
2019-04-22T07:08:39.306Z,14.50
2019-04-22T07:10:47.822Z,14.50
2019-04-22T07:13:23.395Z,14.70
2019-04-22T07:18:24.678Z,14.80
2019-04-22T07:20:55.420Z,15.00
2019-04-22T07:23:21.535Z,15.20
2019-04-22T07:25:45.178Z,15.30
2019-04-22T07:28:15.581Z,15.40
2019-04-22T07:30:56.122Z,15.70
2019-04-22T07:38:25.723Z,16.00
2019-04-22T07:41:02.138Z,16.10
2019-04-22T07:43:32.509Z,16.30
2019-04-22T07:45:49.423Z,16.50
2019-04-22T07:48:33.296Z,16.70
2019-04-22T07:50:56.364Z,16.90
2019-04-22T07:53:24.081Z,17.00
2019-04-22T07:55:54.942Z,17.10
2019-04-22T07:58:26.044Z,17.20
2019-04-22T08:00:59.102Z,17.30
2019-04-22T08:03:32.077Z,17.50
2019-04-22T08:08:25.760Z,17.60
2019-04-22T08:10:57.923Z,17.60
2019-04-22T08:13:24.827Z,17.70
2019-04-22T08:16:19.885Z,17.70
2019-04-22T08:18:31.253Z,17.80
2019-04-22T08:20:56.773Z,17.90
2019-04-22T08:25:55.490Z,18.10
2019-04-22T08:30:56.693Z,18.30
2019-04-22T08:33:29.049Z,18.50
2019-04-22T08:36:06.418Z,18.70
2019-04-22T08:39:25.311Z,18.90
2019-04-22T08:41:18.171Z,19.00
2019-04-22T08:43:47.675Z,19.20
2019-04-22T08:46:17.346Z,19.20
2019-04-22T08:48:47.745Z,19.20
2019-04-22T08:51:18.514Z,19.20
2019-04-22T08:53:51.866Z,19.30
2019-04-22T08:56:29.480Z,19.70
2019-04-22T08:58:50.224Z,21.20
2019-04-22T09:01:17.749Z,22.60
2019-04-22T09:03:46.926Z,23.50
2019-04-22T09:06:22.643Z,24.10
2019-04-22T09:08:49.421Z,25.30
2019-04-22T09:11:21.631Z,25.90
2019-04-22T09:13:50.430Z,26.50
2019-04-22T09:16:19.423Z,26.90
2019-04-22T09:18:48.575Z,27.70
2019-04-22T09:21:18.744Z,27.80
2019-04-22T09:23:57.166Z,28.10
2019-04-22T09:26:16.646Z,28.50
2019-04-22T09:28:54.851Z,28.80
2019-04-22T09:31:33.041Z,28.50
2019-04-22T09:33:45.541Z,28.20
2019-04-22T09:36:22.409Z,28.00
2019-04-22T09:41:24.473Z,27.20
2019-04-22T09:43:53.447Z,28.00
2019-04-22T09:46:19.813Z,28.90
2019-04-22T09:48:50.232Z,28.50
2019-04-22T09:51:19.006Z,28.10
2019-04-22T09:53:57.790Z,28.00
2019-04-22T09:56:18.081Z,27.90
2019-04-22T09:58:50.482Z,28.50
2019-04-22T10:01:24.376Z,28.10
2019-04-22T10:03:56.736Z,28.30
2019-04-22T10:06:33.561Z,28.60
2019-04-22T10:09:02.237Z,29.00
2019-04-22T10:11:27.982Z,29.80
2019-04-22T10:13:53.646Z,28.90
2019-04-22T10:16:27.681Z,28.50
2019-04-22T10:18:52.881Z,28.80
2019-04-22T10:21:31.827Z,29.10
2019-04-22T10:23:50.426Z,29.50
2019-04-22T10:26:26.495Z,29.40
2019-04-22T10:28:55.814Z,28.50
2019-04-22T10:31:23.906Z,28.30
2019-04-22T10:33:48.220Z,28.70
2019-04-22T10:35:57.405Z,29.10
2019-04-22T10:38:26.494Z,29.10
2019-04-22T10:40:56.481Z,28.70
2019-04-22T10:43:25.512Z,29.30
2019-04-22T10:45:54.517Z,29.30
2019-04-22T10:48:24.111Z,28.80
2019-04-22T10:50:54.602Z,29.20
2019-04-22T10:53:23.805Z,29.10
2019-04-22T10:55:52.421Z,29.50
2019-04-22T10:58:22.866Z,30.30
2019-04-22T11:00:52.352Z,30.60
2019-04-22T11:03:22.468Z,30.50
2019-04-22T11:05:53.935Z,31.00
2019-04-22T11:08:31.949Z,31.30
2019-04-22T11:11:09.389Z,31.40
2019-04-22T11:13:22.296Z,31.60
2019-04-22T11:15:52.557Z,30.80
2019-04-22T11:18:21.511Z,30.90
2019-04-22T11:20:51.413Z,31.50
2019-04-22T11:23:20.582Z,32.10
2019-04-22T11:25:50.013Z,31.90
2019-04-22T11:28:19.934Z,30.80
2019-04-22T11:30:50.206Z,30.40
2019-04-22T11:33:20.708Z,30.50
2019-04-22T11:35:50.100Z,30.60
2019-04-22T11:38:19.180Z,30.50
2019-04-22T11:41:07.231Z,31.00
2019-04-22T11:43:36.329Z,31.10
2019-04-22T11:46:07.308Z,30.40
2019-04-22T11:48:36.004Z,30.90
2019-04-22T11:51:04.494Z,31.60
2019-04-22T11:53:32.888Z,31.60
2019-04-22T11:56:02.671Z,31.30
2019-04-22T11:58:33.014Z,30.90
2019-04-22T12:01:02.969Z,31.20
2019-04-22T12:03:31.705Z,30.80
2019-04-22T12:06:01.885Z,30.80
2019-04-22T12:08:31.176Z,31.20
2019-04-22T12:11:03.839Z,31.30
2019-04-22T12:13:30.288Z,31.00
2019-04-22T12:15:59.077Z,31.00
2019-04-22T12:18:29.154Z,30.90
2019-04-22T12:20:59.226Z,30.90
2019-04-22T12:23:29.404Z,30.40
2019-04-22T12:26:04.209Z,31.10
2019-04-22T12:28:30.915Z,31.10
2019-04-22T12:30:59.653Z,31.50
2019-04-22T12:33:29.453Z,32.10
2019-04-22T12:35:58.249Z,31.30
2019-04-22T12:38:27.452Z,31.00
2019-04-22T12:41:00.367Z,31.20
2019-04-22T12:43:27.855Z,30.70
2019-04-22T12:45:56.635Z,30.40
2019-04-22T12:48:25.464Z,30.70
2019-04-22T12:50:56.438Z,30.70
2019-04-22T12:53:27.640Z,31.00
2019-04-22T12:55:55.468Z,30.80
2019-04-22T12:58:25.548Z,30.70
2019-04-22T13:00:54.665Z,30.50
2019-04-22T13:03:26.393Z,30.40
2019-04-22T13:05:53.893Z,30.20
2019-04-22T13:08:23.530Z,30.10
2019-04-22T13:11:00.332Z,29.90
2019-04-22T13:13:23.024Z,29.20
2019-04-22T13:15:53.113Z,28.80
2019-04-22T13:18:31.601Z,28.90
2019-04-22T13:20:52.860Z,28.90
2019-04-22T13:23:22.182Z,29.30
2019-04-22T13:25:52.354Z,29.90
2019-04-22T13:28:21.312Z,30.10
2019-04-22T13:30:50.866Z,29.90
2019-04-22T13:33:19.311Z,29.80
2019-04-22T13:35:49.799Z,29.70
2019-04-22T13:38:19.262Z,29.20
2019-04-22T13:41:00.916Z,29.00
2019-04-22T13:43:18.776Z,28.40
2019-04-22T13:45:49.786Z,28.20
2019-04-22T13:48:40.052Z,28.20
2019-04-22T13:51:21.879Z,28.10
2019-04-22T13:56:24.806Z,29.20
2019-04-22T13:58:37.073Z,29.90
2019-04-22T14:00:52.155Z,30.50
2019-04-22T14:03:35.767Z,30.40
2019-04-22T14:06:06.892Z,30.90
2019-04-22T14:08:37.460Z,30.90
2019-04-22T14:11:20.709Z,31.10
2019-04-22T14:13:37.754Z,31.20
2019-04-22T14:16:08.878Z,31.20
2019-04-22T14:18:38.968Z,30.90
2019-04-22T14:21:09.005Z,30.30
2019-04-22T14:23:38.478Z,29.90
2019-04-22T14:26:07.493Z,29.40
2019-04-22T14:28:37.352Z,28.80
2019-04-22T14:31:06.659Z,28.40
2019-04-22T14:33:36.273Z,28.30
2019-04-22T14:36:05.326Z,28.20
2019-04-22T14:38:34.698Z,28.20
2019-04-22T14:41:05.905Z,28.40
2019-04-22T14:44:43.035Z,29.20
2019-04-22T14:46:27.840Z,29.80
2019-04-22T14:49:01.374Z,30.20
2019-04-22T14:51:22.265Z,30.50
2019-04-22T14:53:57.727Z,30.70
2019-04-22T14:56:06.548Z,30.70
2019-04-22T14:58:35.502Z,30.80
2019-04-22T15:01:06.821Z,30.80
2019-04-22T15:03:39.900Z,30.70
2019-04-22T15:06:06.342Z,30.80
2019-04-22T15:08:35.384Z,31.10
2019-04-22T15:11:05.820Z,31.30
2019-04-22T15:13:33.902Z,31.10
2019-04-22T15:16:13.910Z,30.90
2019-04-22T15:18:53.783Z,30.50
2019-04-22T15:21:27.366Z,30.40
2019-04-22T15:23:56.375Z,30.50
2019-04-22T15:26:26.453Z,30.50
2019-04-22T15:28:55.509Z,30.50
2019-04-22T15:31:24.902Z,30.60
2019-04-22T15:33:54.382Z,30.40
2019-04-22T15:36:24.103Z,30.50
2019-04-22T15:38:53.421Z,30.80
2019-04-22T15:41:22.951Z,30.60
2019-04-22T15:43:52.152Z,30.40
2019-04-22T15:46:23.403Z,30.40
2019-04-22T15:48:53.741Z,30.60
2019-04-22T15:51:22.704Z,30.50
2019-04-22T15:53:51.953Z,30.30
2019-04-22T15:56:21.123Z,30.10
2019-04-22T15:58:51.337Z,29.90
2019-04-22T16:01:27.540Z,29.80
2019-04-22T16:03:50.438Z,29.80
2019-04-22T16:06:19.964Z,29.90
2019-04-22T16:08:49.743Z,30.10
2019-04-22T16:11:19.926Z,29.80
2019-04-22T16:13:48.612Z,29.60
2019-04-22T16:16:18.551Z,29.40
2019-04-22T16:18:48.477Z,28.90
2019-04-22T16:21:30.166Z,28.40
2019-04-22T16:23:52.157Z,27.90
2019-04-22T16:26:42.348Z,27.50
2019-04-22T16:29:13.515Z,26.90
2019-04-22T16:31:43.023Z,26.50
2019-04-22T16:34:13.270Z,26.20
2019-04-22T16:36:42.839Z,25.90
2019-04-22T16:39:15.111Z,25.60
2019-04-22T16:41:44.530Z,25.60
2019-04-22T16:44:14.364Z,25.50
2019-04-22T16:46:43.755Z,25.30
2019-04-22T16:49:15.820Z,25.30
2019-04-22T16:51:45.721Z,25.10
2019-04-22T16:54:15.949Z,25.00
2019-04-22T16:56:45.798Z,24.90
2019-04-22T16:59:14.953Z,24.80
2019-04-22T17:01:46.286Z,24.70
2019-04-22T17:04:25.893Z,24.60
2019-04-22T17:06:57.488Z,24.40
2019-04-22T17:09:26.033Z,24.40
2019-04-22T17:11:54.430Z,24.40
2019-04-22T17:14:29.568Z,24.30
2019-04-22T17:16:52.945Z,24.20
2019-04-22T17:19:21.757Z,24.10
2019-04-22T17:21:50.172Z,24.10
2019-04-22T17:24:19.503Z,24.00
2019-04-22T17:26:48.535Z,24.00
2019-04-22T17:29:16.926Z,23.90
2019-04-22T17:31:50.928Z,23.80
2019-04-22T17:34:15.877Z,23.70
2019-04-22T17:36:46.233Z,23.60
2019-04-22T17:39:30.120Z,23.50
2019-04-22T17:42:07.206Z,23.30
2019-04-22T17:44:59.196Z,23.10
2019-04-22T17:47:16.335Z,23.10
2019-04-22T17:49:53.817Z,23.00
2019-04-22T17:52:24.968Z,22.80
2019-04-22T17:57:23.827Z,22.50
2019-04-22T17:59:51.798Z,22.30
2019-04-22T18:02:22.111Z,22.20
2019-04-22T18:04:40.073Z,22.10
2019-04-22T18:07:31.508Z,22.00
2019-04-22T18:12:34.302Z,21.70
2019-04-22T18:14:59.644Z,21.60
2019-04-22T18:17:32.404Z,21.50
2019-04-22T18:19:54.642Z,21.40
2019-04-22T18:22:19.922Z,21.20
2019-04-22T18:24:53.010Z,21.00
2019-04-22T18:27:43.032Z,20.90
2019-04-22T18:29:52.022Z,20.80
2019-04-22T18:32:17.583Z,20.70
2019-04-22T18:34:49.310Z,20.60
2019-04-22T18:37:23.678Z,20.60
2019-04-22T18:39:58.495Z,20.60
2019-04-22T18:42:23.900Z,20.50
2019-04-22T18:45:09.893Z,20.40
2019-04-22T18:47:23.767Z,20.30
2019-04-22T18:49:53.606Z,20.10
2019-04-22T18:52:35.568Z,20.00
2019-04-22T18:55:02.649Z,19.80
2019-04-22T18:57:47.984Z,19.70
2019-04-22T19:00:04.259Z,19.50
2019-04-22T19:02:34.029Z,19.50
2019-04-22T19:05:12.150Z,19.50
2019-04-22T19:08:00.645Z,19.50
2019-04-22T19:10:31.225Z,19.40
2019-04-22T19:13:17.437Z,19.30
2019-04-22T19:15:24.446Z,19.20
2019-04-22T19:18:02.173Z,19.20
2019-04-22T19:20:32.938Z,19.10
2019-04-22T19:22:57.502Z,19.10
2019-04-22T19:25:25.849Z,19.00
2019-04-22T19:28:01.278Z,18.90
2019-04-22T19:30:35.008Z,18.90
2019-04-22T19:33:06.408Z,18.90
2019-04-22T19:35:26.872Z,18.90
2019-04-22T19:37:57.629Z,18.80
2019-04-22T19:40:58.154Z,18.80
2019-04-22T19:43:16.036Z,18.80
2019-04-22T19:45:40.708Z,18.70
2019-04-22T19:48:25.513Z,18.60
2019-04-22T19:50:52.701Z,18.60
2019-04-22T19:53:19.593Z,18.60
2019-04-22T19:55:47.009Z,18.50
2019-04-22T19:58:14.694Z,18.40
2019-04-22T20:00:45.680Z,18.30
2019-04-22T20:03:33.367Z,18.20
2019-04-22T20:05:56.238Z,18.10
2019-04-22T20:08:26.328Z,18.10
2019-04-22T20:10:59.140Z,18.00
2019-04-22T20:13:30.985Z,17.90
2019-04-22T20:15:50.914Z,17.80
2019-04-22T20:18:34.413Z,17.60
2019-04-22T20:21:00.474Z,17.60
2019-04-22T20:23:24.283Z,17.50
2019-04-22T20:25:51.062Z,17.40
2019-04-22T20:28:33.064Z,17.20
2019-04-22T20:30:55.389Z,17.20
2019-04-22T20:33:35.318Z,17.20
2019-04-22T20:35:58.337Z,17.10
2019-04-22T20:38:29.741Z,17.10
2019-04-22T20:40:55.289Z,17.00
2019-04-22T20:43:35.725Z,17.00
2019-04-22T20:46:02.421Z,16.90
2019-04-22T20:48:28.614Z,16.90
2019-04-22T20:50:58.124Z,16.80
2019-04-22T20:53:34.411Z,16.80
2019-04-22T20:56:02.658Z,16.80
2019-04-22T20:58:33.717Z,16.80
2019-04-22T21:00:55.609Z,16.70
2019-04-22T21:03:24.356Z,16.70
2019-04-22T21:05:53.007Z,16.60
2019-04-22T21:08:30.548Z,16.50
2019-04-22T21:10:53.497Z,16.40
2019-04-22T21:13:23.127Z,16.30
2019-04-22T21:16:04.106Z,16.20
2019-04-22T21:18:27.491Z,16.10
2019-04-22T21:21:03.851Z,16.00
2019-04-22T21:23:29.142Z,15.90
2019-04-22T21:26:02.346Z,16.00
2019-04-22T21:28:34.226Z,16.00
2019-04-22T21:30:59.691Z,16.10
2019-04-22T21:33:25.473Z,16.20
2019-04-22T21:38:35.928Z,16.40
2019-04-22T21:41:07.860Z,16.30
2019-04-22T21:43:39.808Z,16.40
2019-04-22T21:46:08.480Z,16.40
2019-04-22T21:48:37.208Z,16.50
2019-04-22T21:51:08.602Z,16.50
2019-04-22T21:53:43.508Z,16.50
2019-04-22T21:56:27.258Z,16.50
2019-04-22T21:58:52.998Z,16.40
2019-04-22T22:03:55.723Z,16.30
2019-04-22T22:06:15.163Z,16.20
2019-04-22T22:08:59.677Z,16.20
2019-04-22T22:11:26.030Z,16.10
2019-04-22T22:13:56.377Z,15.90
2019-04-22T22:16:18.967Z,15.80
2019-04-22T22:19:00.919Z,15.70
2019-04-22T22:21:40.695Z,15.60
2019-04-22T22:24:00.990Z,15.50
2019-04-22T22:26:19.222Z,15.40
2019-04-22T22:31:34.717Z,15.30
2019-04-22T22:34:04.052Z,15.20
2019-04-22T22:36:23.771Z,15.20
2019-04-22T22:38:55.124Z,15.10
2019-04-22T22:41:07.801Z,15.00
2019-04-22T22:43:42.005Z,15.00
2019-04-22T22:46:20.460Z,15.10
2019-04-22T22:49:01.383Z,15.10
2019-04-22T22:51:34.340Z,15.10
2019-04-22T22:54:01.597Z,15.10
2019-04-22T22:56:39.290Z,15.00
2019-04-22T22:59:01.760Z,15.00
2019-04-22T23:01:31.782Z,14.90
2019-04-22T23:03:55.855Z,14.90
2019-04-22T23:06:32.818Z,14.90
2019-04-22T23:09:04.114Z,14.80
2019-04-22T23:11:50.812Z,14.80
2019-04-22T23:14:02.604Z,14.70
2019-04-22T23:16:18.181Z,14.60
2019-04-22T23:18:57.526Z,14.50
2019-04-22T23:21:33.215Z,14.40
2019-04-22T23:24:20.346Z,14.30
2019-04-22T23:26:43.168Z,14.20
2019-04-22T23:29:10.419Z,14.20
2019-04-22T23:31:44.168Z,14.10
2019-04-22T23:34:26.596Z,14.10
2019-04-22T23:37:06.868Z,14.10
2019-04-22T23:39:51.860Z,14.10
2019-04-22T23:42:19.513Z,14.00
2019-04-22T23:44:43.369Z,14.00
2019-04-22T23:47:14.887Z,14.00
2019-04-22T23:49:53.303Z,13.90
2019-04-22T23:52:25.589Z,13.90
2019-04-22T23:54:57.150Z,13.80
2019-04-22T23:57:30.780Z,13.80
